createdAt,value
2022-09-10T00:00:12.106Z,14.78
2022-09-10T00:05:21.421Z,14.77
2022-09-10T00:10:31.671Z,14.74
2022-09-10T00:15:48.189Z,14.72
2022-09-10T00:21:00.219Z,14.69
2022-09-10T00:26:22.855Z,14.67
2022-09-10T00:31:39.449Z,14.61
2022-09-10T00:36:50.098Z,14.59
2022-09-10T00:42:00.477Z,14.54
2022-09-10T00:47:07.711Z,14.54
2022-09-10T00:52:16.269Z,14.52
2022-09-10T00:57:29.285Z,14.48
2022-09-10T01:02:37.680Z,14.45
2022-09-10T01:07:57.271Z,14.43
2022-09-10T01:13:26.433Z,14.44
2022-09-10T01:18:46.382Z,14.45
2022-09-10T01:24:34.226Z,14.46
2022-09-10T01:29:53.643Z,14.45
2022-09-10T01:35:18.150Z,14.46
2022-09-10T01:40:36.305Z,14.49
2022-09-10T01:46:20.337Z,14.47
2022-09-10T01:51:50.563Z,14.48
2022-09-10T01:57:11.062Z,14.51
2022-09-10T02:02:43.466Z,14.53
2022-09-10T02:08:00.426Z,14.54
2022-09-10T02:13:30.065Z,14.60
2022-09-10T02:19:02.365Z,14.65
2022-09-10T02:24:15.434Z,14.64
2022-09-10T02:29:44.216Z,14.61
2022-09-10T02:34:55.398Z,14.64
2022-09-10T02:40:12.322Z,14.67
2022-09-10T02:45:24.451Z,14.69
2022-09-10T02:50:42.210Z,14.67
2022-09-10T02:55:51.074Z,14.65
2022-09-10T03:01:10.718Z,14.60
2022-09-10T03:06:30.070Z,14.57
2022-09-10T03:11:46.806Z,14.53
2022-09-10T03:16:54.185Z,14.51
2022-09-10T03:22:06.142Z,14.49
2022-09-10T03:27:25.509Z,14.50
2022-09-10T03:32:38.440Z,14.49
2022-09-10T03:37:56.397Z,14.47
2022-09-10T03:43:03.890Z,14.41
2022-09-10T03:48:14.598Z,14.45
2022-09-10T03:53:22.391Z,14.44
2022-09-10T03:58:32.523Z,14.41
2022-09-10T04:03:45.726Z,14.39
2022-09-10T04:09:04.916Z,14.36
2022-09-10T04:14:32.594Z,14.35
2022-09-10T04:19:42.644Z,14.33
2022-09-10T04:25:00.757Z,14.32
2022-09-10T04:30:18.037Z,14.33
2022-09-10T04:35:36.084Z,14.33
2022-09-10T04:40:47.861Z,14.32
2022-09-10T04:45:59.396Z,14.30
2022-09-10T04:51:27.088Z,14.31
2022-09-10T04:56:44.502Z,14.31
2022-09-10T05:02:13.120Z,14.30
2022-09-10T05:07:31.987Z,14.28
2022-09-10T05:12:42.639Z,14.30
2022-09-10T05:18:11.202Z,14.29
2022-09-10T05:23:31.523Z,14.32
2022-09-10T05:28:40.902Z,14.34
2022-09-10T05:33:49.525Z,14.34
2022-09-10T05:38:57.280Z,14.34
2022-09-10T05:44:03.567Z,14.34
2022-09-10T05:49:21.058Z,14.34
2022-09-10T05:54:28.312Z,14.35
2022-09-10T05:59:44.992Z,14.36
2022-09-10T06:04:53.316Z,14.41
2022-09-10T06:10:03.796Z,14.51
2022-09-10T06:15:36.535Z,14.62
2022-09-10T06:20:44.188Z,14.69
2022-09-10T06:26:05.393Z,14.76
2022-09-10T06:31:19.887Z,14.83
2022-09-10T06:36:43.860Z,14.83
2022-09-10T06:41:57.011Z,14.82
2022-09-10T06:53:22.331Z,14.89
2022-09-10T06:58:37.011Z,15.00
2022-09-10T07:03:48.639Z,15.08
2022-09-10T07:08:58.918Z,15.15
2022-09-10T07:14:15.042Z,15.13
2022-09-10T07:19:23.431Z,15.14
2022-09-10T07:24:34.431Z,15.19
2022-09-10T07:29:53.305Z,15.25
2022-09-10T07:35:07.679Z,15.25
2022-09-10T07:40:15.575Z,15.25
2022-09-10T07:45:23.720Z,15.31
2022-09-10T07:50:31.541Z,15.38
2022-09-10T07:55:40.237Z,15.46
2022-09-10T08:00:49.450Z,15.51
2022-09-10T08:06:03.392Z,15.55
2022-09-10T08:11:13.240Z,15.55
2022-09-10T08:16:24.285Z,15.55
2022-09-10T08:21:32.995Z,15.54
2022-09-10T08:26:40.880Z,15.53
2022-09-10T08:31:49.069Z,15.54
2022-09-10T08:37:19.222Z,15.54
2022-09-10T08:42:28.879Z,15.54
2022-09-10T08:47:57.073Z,15.62
2022-09-10T08:53:15.162Z,15.65
2022-09-10T08:58:25.633Z,15.69
2022-09-10T09:03:38.138Z,15.70
2022-09-10T09:08:50.239Z,15.66
2022-09-10T09:14:11.012Z,15.60
2022-09-10T09:19:28.525Z,15.67
2022-09-10T09:24:50.694Z,15.78
2022-09-10T09:30:02.676Z,15.86
2022-09-10T09:35:23.898Z,15.91
2022-09-10T09:40:38.173Z,15.90
2022-09-10T09:45:48.071Z,15.85
2022-09-10T09:51:01.498Z,15.86
2022-09-10T09:56:22.559Z,15.93
2022-09-10T10:01:30.265Z,15.99
2022-09-10T10:06:55.731Z,16.10
2022-09-10T10:12:14.559Z,16.10
2022-09-10T10:17:31.151Z,15.98
2022-09-10T10:22:41.536Z,15.85
2022-09-10T10:27:51.449Z,15.65
2022-09-10T10:33:00.360Z,15.55
2022-09-10T10:38:28.623Z,15.46
2022-09-10T10:43:43.004Z,15.48
2022-09-10T10:49:07.696Z,15.49
2022-09-10T10:54:48.909Z,15.52
2022-09-10T11:00:06.455Z,15.55
2022-09-10T11:05:32.004Z,15.52
2022-09-10T11:10:43.871Z,15.52
2022-09-10T11:15:59.623Z,15.54
2022-09-10T11:21:15.135Z,15.59
2022-09-10T11:26:26.783Z,15.66
2022-09-10T11:31:50.681Z,15.78
2022-09-10T11:37:19.645Z,15.84
2022-09-10T11:42:36.742Z,15.95
2022-09-10T11:48:11.548Z,16.02
2022-09-10T11:53:28.389Z,16.10
2022-09-10T11:58:54.738Z,16.18
2022-09-10T12:04:40.090Z,16.24
2022-09-10T12:09:58.471Z,16.31
2022-09-10T12:15:21.881Z,16.35
2022-09-10T12:20:33.416Z,16.37
2022-09-10T12:25:44.559Z,16.35
2022-09-10T12:31:07.249Z,16.41
2022-09-10T12:36:17.134Z,16.47
2022-09-10T12:41:58.204Z,16.49
2022-09-10T12:47:42.420Z,16.45
2022-09-10T12:53:05.455Z,16.40
2022-09-10T12:58:54.473Z,16.31
2022-09-10T13:04:03.212Z,16.36
2022-09-10T13:09:21.236Z,16.44
2022-09-10T13:14:37.021Z,16.49
2022-09-10T13:19:55.534Z,16.46
2022-09-10T13:25:28.454Z,16.51
2022-09-10T13:30:36.655Z,16.62
2022-09-10T13:36:15.437Z,16.70
2022-09-10T13:41:53.090Z,16.69
2022-09-10T13:47:11.858Z,16.62
2022-09-10T13:52:23.116Z,16.61
2022-09-10T13:57:32.849Z,16.55
2022-09-10T14:02:51.275Z,16.56
2022-09-10T14:08:05.342Z,16.52
2022-09-10T14:13:29.317Z,16.41
2022-09-10T14:18:51.696Z,16.19
2022-09-10T14:24:00.770Z,16.04
2022-09-10T14:29:26.565Z,15.98
2022-09-10T14:34:43.360Z,15.94
2022-09-10T14:39:53.646Z,15.90
2022-09-10T14:45:42.360Z,15.87
2022-09-10T14:50:49.842Z,15.81
2022-09-10T14:56:00.145Z,15.78
2022-09-10T15:01:09.496Z,15.73
2022-09-10T15:06:16.820Z,15.66
2022-09-10T15:11:29.236Z,15.63
2022-09-10T15:16:37.265Z,15.52
2022-09-10T15:22:04.719Z,15.45
2022-09-10T15:27:12.481Z,15.38
2022-09-10T15:32:18.528Z,15.33
2022-09-10T15:37:25.913Z,15.31
2022-09-10T15:42:44.120Z,15.27
2022-09-10T15:47:51.284Z,15.26
2022-09-10T15:52:58.472Z,15.27
2022-09-10T15:58:05.713Z,15.27
2022-09-10T16:03:15.590Z,15.24
2022-09-10T16:08:22.656Z,15.20
2022-09-10T16:13:29.835Z,15.20
2022-09-10T16:18:37.580Z,15.21
2022-09-10T16:23:48.753Z,15.22
2022-09-10T16:29:18.087Z,15.18
2022-09-10T16:34:25.291Z,15.14
2022-09-10T16:39:32.400Z,15.14
2022-09-10T16:44:41.342Z,15.15
2022-09-10T16:49:48.921Z,15.18
2022-09-10T16:54:57.661Z,15.23
2022-09-10T17:00:20.212Z,15.23
2022-09-10T17:05:29.079Z,15.12
2022-09-10T17:10:38.625Z,14.97
2022-09-10T17:15:49.158Z,14.89
2022-09-10T17:20:56.332Z,14.87
2022-09-10T17:26:12.067Z,14.91
2022-09-10T17:31:39.790Z,14.91
2022-09-10T17:36:52.724Z,14.87
2022-09-10T17:42:20.462Z,14.85
2022-09-10T17:47:27.077Z,14.81
2022-09-10T17:52:45.994Z,14.79
2022-09-10T17:57:53.439Z,14.80
2022-09-10T18:03:19.589Z,14.81
2022-09-10T18:08:31.931Z,14.80
2022-09-10T18:13:39.738Z,14.76
2022-09-10T18:18:55.612Z,14.73
2022-09-10T18:24:13.729Z,14.74
2022-09-10T18:29:41.815Z,14.66
2022-09-10T18:34:48.999Z,14.58
2022-09-10T18:39:56.261Z,14.51
2022-09-10T18:45:06.589Z,14.45
2022-09-10T18:50:16.897Z,14.39
2022-09-10T18:55:24.194Z,14.41
2022-09-10T19:00:32.904Z,14.47
2022-09-10T19:05:41.040Z,14.51
2022-09-10T19:10:48.458Z,14.54
2022-09-10T19:16:04.917Z,14.51
2022-09-10T19:21:15.244Z,14.48
2022-09-10T19:26:36.664Z,14.44
2022-09-10T19:31:50.334Z,14.43
2022-09-10T19:37:00.414Z,14.42
2022-09-10T19:42:08.190Z,14.38
2022-09-10T19:47:13.825Z,14.32
2022-09-10T19:52:25.842Z,14.28
2022-09-10T19:57:34.262Z,14.23
2022-09-10T20:02:42.085Z,14.19
2022-09-10T20:07:50.248Z,14.19
2022-09-10T20:13:00.431Z,14.18
2022-09-10T20:18:17.583Z,14.20
2022-09-10T20:23:25.652Z,14.26
2022-09-10T20:28:45.718Z,14.31
2022-09-10T20:34:09.271Z,14.35
2022-09-10T20:39:30.499Z,14.38
2022-09-10T20:44:58.268Z,14.45
2022-09-10T20:50:11.224Z,14.49
2022-09-10T20:55:23.699Z,14.54
2022-09-10T21:00:35.995Z,14.54
2022-09-10T21:05:49.956Z,14.49
2022-09-10T21:11:02.257Z,14.51
2022-09-10T21:16:15.254Z,14.50
2022-09-10T21:21:26.017Z,14.60
2022-09-10T21:26:43.664Z,14.72
2022-09-10T21:32:17.569Z,14.82
2022-09-10T21:37:25.415Z,14.87
2022-09-10T21:42:33.163Z,14.95
2022-09-10T21:47:43.734Z,15.01
2022-09-10T21:52:49.641Z,15.13
2022-09-10T21:58:06.770Z,15.09
2022-09-10T22:03:16.763Z,14.96
2022-09-10T22:08:32.900Z,14.90
2022-09-10T22:13:43.314Z,14.94
2022-09-10T22:18:51.249Z,15.00
2022-09-10T22:23:59.368Z,15.01
2022-09-10T22:29:19.255Z,14.96
2022-09-10T22:34:27.716Z,14.94
2022-09-10T22:39:37.338Z,14.88
2022-09-10T22:44:49.433Z,14.75
2022-09-10T22:49:57.886Z,14.66
2022-09-10T22:55:09.953Z,14.60
2022-09-10T23:00:18.015Z,14.53
2022-09-10T23:05:25.491Z,14.47
2022-09-10T23:10:31.486Z,14.47
2022-09-10T23:15:46.621Z,14.54
2022-09-10T23:20:54.157Z,14.61
2022-09-10T23:26:13.224Z,14.61
2022-09-10T23:31:25.698Z,14.65
2022-09-10T23:36:49.094Z,14.66
2022-09-10T23:42:10.904Z,14.70
2022-09-10T23:47:21.234Z,14.75
2022-09-10T23:52:48.918Z,14.78
2022-09-10T23:58:17.151Z,14.74
